Latest Coastal Weather Observations for Gannett Cay

IDQ60701

Issued at 12:21 pm EST Friday 28 April 2017 (issued every 10 minutes, with the page automatically refreshed every 10 minutes)

About coastal observations | Map of coastal stations | Coastal observations for QLD | Marine services | Other Formats
Station Details ID: 200831 Name: GANNET CAY Lat: -21.98 Lon: 152.47 Height: 2.3 m
Data from the previous 72 hours. | See also: Recent months for locations in Queensland
Date/Time
EST
Temp
°C
Wind Pressure Rain since
9am
mm
Weather Cloud Vis
km
Sea
Height
m
Swell
Dir  Spd
kts
Gust
kts
hPa Trend Height
m
Period
s
Dir
28/12:00pm 19.8 S 19 25 1014.2 - - - - - - - - -
28/11:30am 19.8 SSW 18 24 1014.7 - - - - - - - - -
28/11:29am 20.0 SSW 18 - 1014.8 - - - - - - - - -
28/11:00am 20.1 SSW 18 21 1015.2 - - - - - - - - -
28/10:30am 20.5 SSW 17 23 1015.4 - - - - - - - - -
28/10:29am 20.1 SSW 17 - 1015.5 - - - - - - - - -
28/10:00am 20.1 SSW 19 23 1015.7 - - - - - - - - -
28/09:30am 19.8 SSW 17 23 1015.7 - - - - - - - - -
28/09:29am 20.2 SSW 17 - 1015.9 - - - - - - - - -
28/09:00am 19.8 SSW 18 24 1015.4 - - - - - - - - -
28/08:30am 19.9 SSW 18 22 1015.4 - - - - - - - - -
28/08:29am 19.9 SSW 19 - 1015.5 - - - - - - - - -
28/08:00am 20.1 SSW 18 22 1015.0 - - - - - - - - -
28/07:30am 19.9 SSW 18 22 1014.6 - - - - - - - - -
28/07:29am 20.1 SSW 18 - 1014.7 - - - - - - - - -
28/07:00am 20.2 SSW 18 23 1014.3 - - - - - - - - -
28/06:30am 20.6 S 18 23 1014.1 - - - - - - - - -
28/06:29am 20.2 S 19 - 1014.2 - - - - - - - - -
28/06:00am 20.5 SSW 19 25 1013.9 - - - - - - - - -
28/05:30am 20.6 S 20 25 1013.7 - - - - - - - - -
28/05:29am 20.6 S 20 - 1013.8 - - - - - - - - -
28/05:00am 21.1 S 21 25 1013.7 - - - - - - - - -
28/04:30am 21.5 S 22 26 1013.6 - - - - - - - - -
28/04:29am 21.5 S 23 - 1013.6 - - - - - - - - -
28/04:00am 21.8 S 24 29 1013.3 - - - - - - - - -
28/03:30am 22.3 S 23 28 1013.0 - - - - - - - - -
28/03:29am 22.1 S 23 - 1013.0 - - - - - - - - -
28/03:00am 22.6 S 23 28 1012.7 - - - - - - - - -
28/02:30am 22.8 S 23 27 1012.5 - - - - - - - - -
28/02:29am 22.9 S 23 - 1012.7 - - - - - - - - -
28/02:00am 23.0 S 22 27 1012.6 - - - - - - - - -
28/01:30am 23.2 S 22 27 1012.6 - - - - - - - - -
28/01:29am 23.2 S 22 - 1012.7 - - - - - - - - -
28/01:00am 23.5 S 19 23 1012.9 - - - - - - - - -
28/12:30am 23.4 S 19 23 1013.3 - - - - - - - - -
28/12:29am 23.6 S 19 - 1013.4 - - - - - - - - -
28/12:00am 23.5 S 19 23 1013.3 - - - - - - - - -
 
Date/Time
EST
Temp
°C
Wind Pressure Rain since
9am
mm
Weather Cloud Vis
km
Sea
Height
m
Swell
Dir  Spd
kts
Gust
kts
hPa Trend Height
m
Period
s
Dir
27/11:30pm 23.7 S 21 24 1013.5 - - - - - - - - -
27/11:29pm 23.6 S 20 - 1013.6 - - - - - - - - -
27/11:00pm 23.7 S 20 23 1013.7 - - - - - - - - -
27/10:30pm 23.5 S 16 19 1013.5 - - - - - - - - -
27/10:29pm 23.6 S 16 - 1013.6 - - - - - - - - -
27/10:00pm 23.3 S 16 19 1013.5 - - - - - - - - -
27/09:30pm 23.2 S 20 23 1013.8 - - - - - - - - -
27/09:29pm 23.2 S 20 - 1013.9 - - - - - - - - -
27/09:00pm 23.0 S 19 23 1014.0 - - - - - - - - -
27/08:30pm 22.8 S 20 24 1013.7 - - - - - - - - -
27/08:29pm 22.8 S 20 - 1013.8 - - - - - - - - -
27/08:00pm 22.4 S 23 26 1013.5 - - - - - - - - -
27/07:30pm 22.5 S 24 28 1012.9 - - - - - - - - -
27/07:29pm 22.7 S 23 - 1013.0 - - - - - - - - -
27/07:00pm 22.9 S 22 26 1012.4 - - - - - - - - -
27/06:30pm 23.3 S 23 27 1012.0 - - - - - - - - -
27/06:29pm 23.4 S 23 - 1012.1 - - - - - - - - -
27/06:00pm 23.4 S 22 27 1011.6 - - - - - - - - -
27/05:30pm 23.8 S 21 24 1011.3 - - - - - - - - -
27/05:29pm 23.6 S 21 - 1011.4 - - - - - - - - -
27/05:00pm 23.7 S 20 22 1011.0 - - - - - - - - -
27/04:30pm 24.2 S 20 23 1010.4 - - - - - - - - -
27/04:29pm 23.8 S 20 - 1010.5 - - - - - - - - -
27/04:00pm 24.4 S 18 21 1010.2 - - - - - - - - -
27/03:30pm 24.5 S 18 20 1010.1 - - - - - - - - -
27/03:29pm 24.4 S 18 - 1010.2 - - - - - - - - -
27/03:00pm 24.8 SSE 15 17 1010.1 - - - - - - - - -
27/02:30pm 24.9 SSE 15 17 1010.0 - - - - - - - - -
27/02:29pm 24.9 SSE 15 - 1010.1 - - - - - - - - -
27/02:00pm 25.0 SSE 15 17 1010.2 - - - - - - - - -
27/01:30pm 24.8 SSE 16 19 1010.4 - - - - - - - - -
27/01:29pm 24.9 SSE 16 - 1010.5 - - - - - - - - -
27/01:00pm 24.2 SSE 17 19 1011.0 - - - - - - - - -
27/12:30pm 24.5 SSE 18 21 1011.1 - - - - - - - - -
27/12:29pm 24.4 SSE 18 - 1011.2 - - - - - - - - -
27/12:00pm 24.3 S 17 20 1011.5 - - - - - - - - -
27/11:30am 25.3 SSW 8 9 1012.0 - - - - - - - - -
27/11:29am 25.3 SSW 8 - 1012.1 - - - - - - - - -
27/11:00am 25.7 W 6 7 1012.5 - - - - - - - - -
27/10:30am 25.6 W 6 7 1012.9 - - - - - - - - -
27/10:29am 25.5 W 6 - 1013.0 - - - - - - - - -
27/10:00am 25.4 W 5 7 1013.0 - - - - - - - - -
27/09:30am 25.3 W 8 10 1013.3 - - - - - - - - -
27/09:29am 25.4 W 8 - 1013.5 - - - - - - - - -
27/09:00am 25.3 W 7 9 1013.4 - - - - - - - - -
27/08:30am 25.2 W 8 11 1013.2 - - - - - - - - -
27/08:29am 25.4 W 8 - 1013.3 - - - - - - - - -
27/08:00am 25.2 W 9 9 1012.9 - - - - - - - - -
27/07:30am 25.1 W 9 10 1012.6 - - - - - - - - -
27/07:29am 25.1 W 9 - 1012.7 - - - - - - - - -
27/07:00am 25.1 WNW 9 11 1012.3 - - - - - - - - -
27/06:30am 24.9 WNW 10 11 1012.2 - - - - - - - - -
27/06:29am 24.9 WNW 10 - 1012.3 - - - - - - - - -
27/06:00am 24.8 WNW 11 13 1011.8 - - - - - - - - -
27/05:30am 24.8 WNW 9 11 1011.5 - - - - - - - - -
27/05:29am 24.8 WNW 9 - 1011.6 - - - - - - - - -
27/05:00am 24.7 WNW 9 11 1011.3 - - - - - - - - -
27/04:30am 24.8 NW 7 9 1010.9 - - - - - - - - -
27/04:29am 24.7 NW 7 - 1011.0 - - - - - - - - -
27/04:00am 24.9 NNW 9 11 1010.8 - - - - - - - - -
27/03:30am 24.8 NNW 8 9 1010.9 - - - - - - - - -
27/03:29am 24.8 NNW 8 - 1011.0 - - - - - - - - -
27/03:00am 24.9 NNW 9 11 1011.0 - - - - - - - - -
27/02:30am 24.6 NW 10 12 1011.0 - - - - - - - - -
27/02:29am 24.6 NW 10 - 1011.1 - - - - - - - - -
27/02:00am 24.7 NNW 10 12 1011.0 - - - - - - - - -
27/01:30am 24.7 NNW 10 11 1011.3 - - - - - - - - -
27/01:29am 24.8 NNW 10 - 1011.4 - - - - - - - - -
27/01:00am 24.8 NNW 10 12 1011.7 - - - - - - - - -
27/12:30am 24.9 NNW 9 11 1011.9 - - - - - - - - -
27/12:29am 24.9 NNW 9 - 1012.1 - - - - - - - - -
27/12:00am 24.8 NNW 9 11 1012.2 - - - - - - - - -
 
Date/Time
EST
Temp
°C
Wind Pressure Rain since
9am
mm
Weather Cloud Vis
km
Sea
Height
m
Swell
Dir  Spd
kts
Gust
kts
hPa Trend Height
m
Period
s
Dir
26/11:30pm 24.9 NNW 9 12 1012.4 - - - - - - - - -
26/11:29pm 24.8 NNW 9 - 1012.5 - - - - - - - - -
26/11:00pm 24.9 NNW 9 11 1012.3 - - - - - - - - -
26/10:30pm 25.0 NNW 8 9 1012.4 - - - - - - - - -
26/10:29pm 24.9 NNW 8 - 1012.5 - - - - - - - - -
26/10:00pm 24.9 NNW 8 10 1012.6 - - - - - - - - -
26/09:30pm 25.0 NNW 9 10 1012.5 - - - - - - - - -
26/09:29pm 24.9 NNW 9 - 1012.6 - - - - - - - - -
26/09:00pm 24.9 N 9 11 1012.5 - - - - - - - - -
26/08:30pm 24.9 N 7 8 1012.6 - - - - - - - - -
26/08:29pm 25.0 N 7 - 1012.6 - - - - - - - - -
26/08:00pm 24.8 N 6 7 1012.3 - - - - - - - - -
26/07:30pm 24.9 N 6 8 1011.9 - - - - - - - - -
26/07:29pm 25.0 N 7 - 1012.0 - - - - - - - - -
26/07:00pm 24.8 N 7 9 1011.3 - - - - - - - - -
26/06:30pm 24.8 N 8 9 1011.1 - - - - - - - - -
26/06:29pm 24.8 N 8 - 1011.2 - - - - - - - - -
26/06:00pm 24.8 N 6 7 1011.1 - - - - - - - - -
26/05:30pm 24.8 N 4 5 1011.3 - - - - - - - - -
26/05:29pm 24.8 N 4 - 1011.3 - - - - - - - - -
26/05:00pm 25.0 N 4 5 1011.1 - - - - - - - - -
26/04:30pm 25.5 NNW 3 4 1011.0 - - - - - - - - -
26/04:29pm 25.5 NNW 3 - 1011.1 - - - - - - - - -
26/04:00pm 25.2 N 4 6 1010.8 - - - - - - - - -
26/03:30pm 25.4 N 4 5 1010.8 - - - - - - - - -
26/03:29pm 25.3 N 3 - 1010.9 - - - - - - - - -
26/03:00pm 25.5 CALM 0 3 1010.9 - - - - - - - - -
26/02:30pm 27.7 CALM 0 0 1011.2 - - - - - - - - -
26/02:29pm 27.7 CALM 0 - 1011.3 - - - - - - - - -
26/02:00pm 26.7 CALM 0 0 1011.3 - - - - - - - - -
26/01:30pm 26.6 CALM 0 2 1011.7 - - - - - - - - -
26/01:29pm 26.8 CALM 0 - 1011.8 - - - - - - - - -
26/01:00pm 26.8 CALM 0 1 1011.9 - - - - - - - - -
26/12:30pm 26.5 CALM 0 3 1012.5 - - - - - - - - -
26/12:29pm 26.4 CALM 0 - 1012.6 - - - - - - - - -
26/12:00pm 25.5 W 3 4 1012.9 - - - - - - - - -
26/11:30am 25.6 SW 3 4 1013.4 - - - - - - - - -
26/11:29am 25.5 SW 3 - 1013.5 - - - - - - - - -
26/11:00am 26.9 ENE 1 6 1013.8 - - - - - - - - -
26/10:30am 27.2 ENE 2 3 1014.0 - - - - - - - - -
26/10:29am 27.1 ENE 2 - 1014.1 - - - - - - - - -
26/10:00am 26.1 ENE 1 4 1014.2 - - - - - - - - -
26/09:30am 26.2 NE 3 5 1014.4 - - - - - - - - -
26/09:29am 26.0 NE 3 - 1014.5 - - - - - - - - -
26/09:00am 25.7 NE 4 5 1014.5 - - - - - - - - -
26/08:30am 25.4 NE 4 5 1014.4 - - - - - - - - -
26/08:29am 25.7 NE 4 - 1014.5 - - - - - - - - -
26/08:00am 25.6 ENE 3 5 1014.3 - - - - - - - - -
26/07:30am 25.6 NE 4 5 1014.1 - - - - - - - - -
26/07:29am 25.5 NE 4 - 1014.2 - - - - - - - - -
26/07:00am 26.0 ENE 3 5 1013.9 - - - - - - - - -
26/06:30am 25.2 E 3 4 1013.4 - - - - - - - - -
26/06:29am 25.1 E 3 - 1013.6 - - - - - - - - -
26/06:00am 24.4 CALM 0 2 1013.2 - - - - - - - - -
26/05:30am 24.4 CALM 0 0 1013.2 - - - - - - - - -
26/05:29am 24.4 CALM 0 - 1013.3 - - - - - - - - -
26/05:00am 24.5 NNE 3 5 1013.1 - - - - - - - - -
26/04:30am 24.5 NNE 2 4 1013.0 - - - - - - - - -
26/04:29am 24.5 NNE 2 - 1013.1 - - - - - - - - -
26/04:00am 24.6 N 5 7 1013.1 - - - - - - - - -
26/03:30am 24.7 NNE 6 8 1013.2 - - - - - - - - -
26/03:29am 24.9 NE 6 - 1013.3 - - - - - - - - -
26/03:00am 24.9 NE 7 9 1013.2 - - - - - - - - -
26/02:30am 24.3 SE 4 5 1013.1 - - - - - - - - -
26/02:29am 24.2 SE 4 - 1013.2 - - - - - - - - -
26/02:00am 24.1 SSE 6 9 1013.3 - - - - - - - - -
26/01:30am 24.1 ESE 7 9 1013.9 - - - - - - - - -
26/01:29am 24.2 SE 7 - 1014.0 - - - - - - - - -
26/01:00am 24.2 SSE 7 10 1014.1 - - - - - - - - -
26/12:30am 24.8 E 5 6 1014.2 - - - - - - - - -
26/12:29am 24.8 E 5 - 1014.3 - - - - - - - - -
26/12:00am 24.8 E 7 8 1014.3 - - - - - - - - -
 
Date/Time
EST
Temp
°C
Wind Pressure Rain since
9am
mm
Weather Cloud Vis
km
Sea
Height
m
Swell
Dir  Spd
kts
Gust
kts
hPa Trend Height
m
Period
s
Dir
25/11:30pm 25.0 E 8 10 1014.4 - - - - - - - - -
25/11:29pm 24.9 E 8 - 1014.5 - - - - - - - - -
25/11:00pm 24.9 E 8 10 1014.4 - - - - - - - - -
25/10:30pm 24.7 E 8 10 1014.6 - - - - - - - - -
25/10:29pm 24.7 E 8 - 1014.7 - - - - - - - - -
25/10:00pm 24.8 E 9 11 1014.7 - - - - - - - - -
25/09:30pm 24.8 E 9 10 1015.0 - - - - - - - - -
25/09:29pm 24.8 E 9 - 1015.1 - - - - - - - - -
25/09:00pm 24.7 ESE 8 9 1015.2 - - - - - - - - -
25/08:30pm 24.7 ESE 9 11 1014.9 - - - - - - - - -
25/08:29pm 24.7 ESE 9 - 1015.1 - - - - - - - - -
25/08:00pm 24.5 ESE 10 11 1014.7 - - - - - - - - -
25/07:30pm 24.5 ESE 12 14 1014.9 - - - - - - - - -
25/07:29pm 24.6 ESE 12 - 1015.0 - - - - - - - - -
25/07:00pm 24.3 SE 12 14 1014.5 - - - - - - - - -
25/06:30pm 24.3 SE 13 15 1014.0 - - - - - - - - -
25/06:29pm 24.7 SE 13 - 1014.1 - - - - - - - - -
25/06:00pm 24.3 SE 13 15 1013.8 - - - - - - - - -
25/05:30pm 24.1 SE 15 17 1013.7 - - - - - - - - -
25/05:29pm 24.2 SE 16 - 1013.8 - - - - - - - - -
25/05:00pm 24.8 SSE 15 17 1013.5 - - - - - - - - -
25/04:30pm 25.3 SSE 14 16 1013.3 - - - - - - - - -
25/04:29pm 25.2 SSE 14 - 1013.4 - - - - - - - - -
25/04:00pm 25.2 SSE 13 16 1013.4 - - - - - - - - -
25/03:30pm 25.1 SSE 12 13 1013.2 - - - - - - - - -
25/03:29pm 25.2 SSE 12 - 1013.3 - - - - - - - - -
25/03:00pm 25.1 SSE 14 15 1013.2 - - - - - - - - -
25/02:30pm 25.1 SSE 15 18 1013.4 - - - - - - - - -
25/02:29pm 24.9 SSE 15 - 1013.5 - - - - - - - - -
25/02:00pm 25.2 SSE 14 16 1013.5 - - - - - - - - -
25/01:30pm 25.7 SSE 12 14 1013.7 - - - - - - - - -
25/01:29pm 25.6 SSE 12 - 1013.9 - - - - - - - - -
25/01:00pm 25.7 SE 11 14 1014.0 - - - - - - - - -
25/12:30pm 25.2 SSE 14 15 1014.3 - - - - - - - - -
25/12:29pm 25.1 SSE 14 - 1014.4 - - - - - - - - -

Other Formats:

Comma delimited format used in spreadsheet applications
http://www.bom.gov.au/fwo/IDQ60701/IDQ60701.94379.axf

JavaScript Object Notation format (JSON) in row-major order
http://www.bom.gov.au/fwo/IDQ60701/IDQ60701.94379.json